TimeGMT,TemperatureF,Dew PointF,Humidity,Sea Level PressureIn,VisibilityMPH,Wind Direction,Wind SpeedMPH,Gust SpeedMPH,PrecipitationIn,Events,Conditions,WindDirDegrees,DateUTC
12:00 AM,36,33,84,29.71,19,SW,22.4,,,,Scattered Clouds,230,2013-12-20 00:00:00
12:00 AM,35.6,33.8,93,29.68,6.2,SW,21.9,33.4,N/A,,Partly Cloudy,230,2013-12-20 00:00:00
12:30 AM,35.6,33.8,93,29.68,6.2,SW,20.7,-,N/A,,Partly Cloudy,230,2013-12-20 00:30:00
1:00 AM,37,33,82,29.74,19,SW,22.4,,,,Scattered Clouds,230,2013-12-20 01:00:00
1:00 AM,37.4,33.8,87,29.71,6.2,SW,21.9,-,N/A,,Partly Cloudy,230,2013-12-20 01:00:00
1:30 AM,37.4,33.8,87,29.74,6.2,SW,19.6,-,N/A,,Partly Cloudy,230,2013-12-20 01:30:00
2:00 AM,37,34,84,29.76,19,SW,22.4,,,,Scattered Clouds,230,2013-12-20 02:00:00
2:00 AM,37.4,33.8,87,29.74,6.2,SW,21.9,-,N/A,,Partly Cloudy,230,2013-12-20 02:00:00
2:30 AM,37.4,33.8,87,29.74,6.2,SW,19.6,-,N/A,,Partly Cloudy,230,2013-12-20 02:30:00
3:00 AM,38,34,81,29.78,19,SW,20.1,,,,Scattered Clouds,230,2013-12-20 03:00:00
3:00 AM,37.4,33.8,87,29.77,6.2,SW,19.6,-,N/A,,Partly Cloudy,230,2013-12-20 03:00:00
3:30 AM,39.2,33.8,81,29.77,6.2,SW,18.4,-,N/A,,Partly Cloudy,230,2013-12-20 03:30:00
4:00 AM,38,35,82,29.82,19,SW,20.1,,,,Scattered Clouds,230,2013-12-20 04:00:00
4:00 AM,39.2,33.8,81,29.80,6.2,SW,19.6,31.1,N/A,,Partly Cloudy,230,2013-12-20 04:00:00
4:30 AM,37.4,35.6,93,29.80,6.2,SW,16.1,-,N/A,,Partly Cloudy,220,2013-12-20 04:30:00
5:00 AM,39,35,82,29.84,19,SW,20.1,,,,Mostly Cloudy,220,2013-12-20 05:00:00
5:00 AM,39.2,35.6,87,29.83,6.2,SW,18.4,-,N/A,,Scattered Clouds,220,2013-12-20 05:00:00
5:30 AM,39.2,35.6,87,29.83,6.2,SW,17.3,-,N/A,Rain,Light Rain Showers,220,2013-12-20 05:30:00
6:00 AM,40,36,78,29.86,16,SW,17.9,,,Rain,Light Rain Showers,220,2013-12-20 06:00:00
6:00 AM,39.2,35.6,87,29.83,6.2,SW,18.4,-,N/A,,Mostly Cloudy,220,2013-12-20 06:00:00
6:30 AM,41.0,35.6,81,29.86,6.2,SW,17.3,-,N/A,,Mostly Cloudy,220,2013-12-20 06:30:00
7:00 AM,41,36,75,29.88,16,SW,17.9,,,,Scattered Clouds,220,2013-12-20 07:00:00
7:00 AM,41.0,35.6,81,29.86,6.2,SW,17.3,-,N/A,,Mostly Cloudy,220,2013-12-20 07:00:00
7:30 AM,41.0,35.6,81,29.86,6.2,SW,16.1,-,N/A,,Mostly Cloudy,220,2013-12-20 07:30:00
8:00 AM,42,36,71,29.88,16,SSW,15.7,,,,Partly Cloudy,210,2013-12-20 08:00:00
8:00 AM,42.8,35.6,76,29.86,6.2,SSW,15.0,-,N/A,,Mostly Cloudy,210,2013-12-20 08:00:00
8:30 AM,42.8,35.6,76,29.86,6.2,SSW,15.0,-,N/A,,Mostly Cloudy,210,2013-12-20 08:30:00
9:00 AM,44,36,64,29.88,19,SSW,17.9,,,,Partly Cloudy,210,2013-12-20 09:00:00
9:00 AM,42.8,35.6,76,29.86,6.2,SSW,18.4,-,N/A,,Mostly Cloudy,210,2013-12-20 09:00:00
9:30 AM,44.6,37.4,76,29.86,6.2,SSW,17.3,-,N/A,,Mostly Cloudy,200,2013-12-20 09:30:00
10:00 AM,45,37,65,29.86,19,SSW,17.9,,,,Partly Cloudy,200,2013-12-20 10:00:00
10:00 AM,44.6,37.4,76,29.86,6.2,SSW,16.1,-,N/A,,Mostly Cloudy,200,2013-12-20 10:00:00
10:30 AM,46.4,37.4,71,29.83,6.2,SSW,18.4,-,N/A,,Mostly Cloudy,200,2013-12-20 10:30:00
11:00 AM,47,39,65,29.84,19,SSW,20.1,,,,Mostly Cloudy,200,2013-12-20 11:00:00
11:00 AM,46.4,39.2,76,29.83,6.2,SSW,18.4,29.9,N/A,,Mostly Cloudy,200,2013-12-20 11:00:00
11:30 AM,48.2,41.0,76,29.80,6.2,SSW,23.0,34.5,N/A,,Mostly Cloudy,210,2013-12-20 11:30:00
12:00 PM,49,41,67,29.79,16,SSW,24.6,,,Rain,Light Rain,200,2013-12-20 12:00:00
12:00 PM,48.2,41.0,76,29.77,6.2,SSW,23.0,34.5,N/A,,Mostly Cloudy,200,2013-12-20 12:00:00
12:30 PM,50.0,42.8,76,29.74,6.2,SSW,24.2,38.0,N/A,,Mostly Cloudy,200,2013-12-20 12:30:00
1:00 PM,49,43,74,29.75,12,SSW,22.4,,,Rain,Light Rain,200,2013-12-20 13:00:00
1:00 PM,48.2,42.8,82,29.74,6.2,SSW,23.0,34.5,N/A,Rain,Light Rain,200,2013-12-20 13:00:00
1:30 PM,50.0,42.8,76,29.71,6.2,SSW,26.5,41.4,N/A,Rain,Light Rain,200,2013-12-20 13:30:00
2:00 PM,50,43,70,29.70,11,SSW,26.8,,,Rain,Light Rain,200,2013-12-20 14:00:00
2:00 PM,50.0,42.8,76,29.68,6.2,SSW,26.5,39.1,N/A,,Mostly Cloudy,200,2013-12-20 14:00:00
2:30 PM,50.0,42.8,76,29.68,6.2,SSW,26.5,38.0,N/A,,Mostly Cloudy,200,2013-12-20 14:30:00
3:00 PM,49,44,77,29.66,11,SSW,24.6,,,Rain,Light Rain,200,2013-12-20 15:00:00
3:00 PM,50.0,44.6,82,29.65,6.2,SSW,25.3,41.4,N/A,Rain,Light Rain,200,2013-12-20 15:00:00
3:30 PM,50.0,44.6,82,29.62,6.2,SSW,31.1,51.8,N/A,Rain,Light Rain,200,2013-12-20 15:30:00
4:00 PM,51,45,74,29.63,11,SSW,29.1,,,Rain,Light Rain,200,2013-12-20 16:00:00
4:00 PM,50.0,44.6,82,29.62,6.2,SSW,28.8,47.2,N/A,,Mostly Cloudy,200,2013-12-20 16:00:00
4:30 PM,50.0,46.4,87,29.59,6.2,SSW,32.2,46.0,N/A,Rain,Light Rain,200,2013-12-20 16:30:00
5:00 PM,51,46,78,29.59,11,SSW,26.8,,,Rain,Light Rain,200,2013-12-20 17:00:00
5:00 PM,50.0,46.4,87,29.56,6.2,SSW,26.5,-,N/A,Rain,Light Rain,200,2013-12-20 17:00:00
5:30 PM,51.8,46.4,82,29.56,6.2,SSW,28.8,47.2,N/A,Rain,Light Rain,200,2013-12-20 17:30:00
6:00 PM,51,47,82,29.56,9,SSW,26.8,,,Rain,Light Rain,210,2013-12-20 18:00:00
6:00 PM,50.0,46.4,87,29.53,6.2,SSW,27.6,-,N/A,Rain,Light Rain,210,2013-12-20 18:00:00
6:30 PM,51.8,48.2,88,29.53,6.2,SSW,31.1,47.2,N/A,Rain,Light Rain,210,2013-12-20 18:30:00
7:00 PM,52,47,79,29.52,9,SSW,31.3,,,Rain,Light Rain,210,2013-12-20 19:00:00
7:00 PM,51.8,48.2,88,29.50,6.2,SSW,32.2,48.3,N/A,Rain,Light Rain,210,2013-12-20 19:00:00
7:30 PM,51.8,48.2,88,29.50,6.2,SSW,33.4,50.6,N/A,Rain,Light Rain,210,2013-12-20 19:30:00
8:00 PM,52,49,84,29.50,7,SW,31.3,,,Rain,Light Rain,220,2013-12-20 20:00:00
8:00 PM,51.8,48.2,88,29.47,6.2,SW,32.2,49.5,N/A,Rain,Light Rain,220,2013-12-20 20:00:00
8:30 PM,51.8,50.0,94,29.50,6.2,SW,32.2,46.0,N/A,Rain,Light Rain,220,2013-12-20 20:30:00
9:00 PM,53,48,78,29.50,12,SW,29.1,,,Rain,Light Rain,230,2013-12-20 21:00:00
9:00 PM,51.8,48.2,88,29.47,6.2,SW,31.1,42.6,N/A,,Mostly Cloudy,220,2013-12-20 21:00:00
9:30 PM,50.0,44.6,82,29.53,5.0,WSW,38.0,59.8,N/A,Rain,Rain,240,2013-12-20 21:30:00
10:00 PM,49,44,79,29.56,10,WSW,26.8,,,Rain,Light Rain,240,2013-12-20 22:00:00
10:00 PM,48.2,44.6,87,29.53,6.2,WSW,27.6,-,N/A,Rain,Light Rain,240,2013-12-20 22:00:00
10:30 PM,48.2,44.6,87,29.56,6.2,SW,27.6,-,N/A,,Scattered Clouds,230,2013-12-20 22:30:00
11:00 PM,49,43,71,29.58,16,SW,24.6,,,,Scattered Clouds,230,2013-12-20 23:00:00
11:00 PM,48.2,42.8,82,29.56,6.2,SW,24.2,-,N/A,,Partly Cloudy,230,2013-12-20 23:00:00
11:30 PM,48.2,41.0,76,29.56,6.2,WSW,26.5,-,N/A,,Partly Cloudy,240,2013-12-20 23:30:00